Time;durP1;ratioP1;P1;durP2;ratioP2;P2;SDS_P1;SDS_P2;PMS_P1;PMS_P2;Temp;Humidity;BMP_temperature;BMP_pressure;BME280_temperature;BME280_humidity;BME280_pressure;Samples;Min_cycle;Max_cycle;Signal;HPM_P1;HPM_P2
2023/10/20 00:00:14;;;;;;;33.25;20.70;;;7.80;99.90;;;;;;4975078;28;20050;-48
2023/10/20 00:02:42;;;;;;;31.48;19.63;;;7.90;99.90;;;;;;4971401;28;20034;-47
2023/10/20 00:05:09;;;;;;;31.27;19.77;;;7.90;99.90;;;;;;4982548;28;20408;-46
2023/10/20 00:07:35;;;;;;;33.33;19.48;;;7.90;99.90;;;;;;4985515;28;20027;-46
2023/10/20 00:10:01;;;;;;;32.63;19.27;;;7.90;99.90;;;;;;4985347;28;20431;-47
2023/10/20 00:12:27;;;;;;;28.02;18.55;;;7.90;99.90;;;;;;4967564;28;20022;-48
2023/10/20 00:14:53;;;;;;;29.85;18.00;;;7.90;99.90;;;;;;4985357;28;20455;-48
2023/10/20 00:17:19;;;;;;;29.38;17.35;;;7.80;99.90;;;;;;4982348;28;20110;-46
2023/10/20 00:19:45;;;;;;;24.35;16.35;;;7.80;99.90;;;;;;4985382;28;20106;-49
2023/10/20 00:22:11;;;;;;;26.00;17.58;;;7.90;99.90;;;;;;4983302;28;20117;-46
2023/10/20 00:24:36;;;;;;;26.75;17.85;;;7.90;99.90;;;;;;4982901;28;20022;-47
2023/10/20 00:27:03;;;;;;;30.35;17.42;;;7.90;99.90;;;;;;4982724;28;20132;-49
2023/10/20 00:29:28;;;;;;;23.52;16.20;;;7.80;99.90;;;;;;4986910;28;20278;-47
2023/10/20 00:31:54;;;;;;;25.48;17.38;;;7.90;99.90;;;;;;4981149;28;20428;-46
2023/10/20 00:34:19;;;;;;;27.27;16.40;;;7.80;99.90;;;;;;4962243;28;20035;-49
2023/10/20 00:36:45;;;;;;;27.50;17.65;;;7.80;99.90;;;;;;4991411;28;20046;-50
2023/10/20 00:39:12;;;;;;;26.23;17.27;;;7.80;99.90;;;;;;4991687;28;20061;-50
2023/10/20 00:41:38;;;;;;;25.38;16.20;;;7.90;99.90;;;;;;4991462;28;20475;-47
2023/10/20 00:44:04;;;;;;;26.08;16.50;;;7.90;99.90;;;;;;4991540;28;20041;-49
2023/10/20 00:46:30;;;;;;;24.52;16.35;;;7.80;99.90;;;;;;4991294;28;20027;-48
2023/10/20 00:48:57;;;;;;;24.60;15.25;;;7.80;99.90;;;;;;4991433;28;20044;-48
2023/10/20 00:51:24;;;;;;;26.25;16.25;;;7.80;99.90;;;;;;4991435;28;20030;-49
2023/10/20 00:53:50;;;;;;;22.67;14.98;;;7.80;99.90;;;;;;4991405;28;20061;-48
2023/10/20 00:56:17;;;;;;;21.73;15.02;;;7.80;99.90;;;;;;4973611;28;20034;-48
2023/10/20 00:58:43;;;;;;;27.10;16.13;;;7.80;99.90;;;;;;4973814;28;20038;-47
2023/10/20 01:01:08;;;;;;;22.80;14.70;;;7.90;99.90;;;;;;4991260;28;20476;-47
2023/10/20 01:03:35;;;;;;;25.90;15.85;;;7.90;99.90;;;;;;4990949;28;20506;-47
2023/10/20 01:06:03;;;;;;;27.52;15.82;;;7.80;99.90;;;;;;4990663;28;20018;-51
2023/10/20 01:08:28;;;;;;;24.02;15.60;;;7.80;99.90;;;;;;4991213;28;20022;-47
2023/10/20 01:10:54;;;;;;;24.20;15.38;;;7.80;99.90;;;;;;4990804;28;20033;-46
2023/10/20 01:13:22;;;;;;;27.05;16.83;;;7.80;99.90;;;;;;4991077;28;20069;-47
2023/10/20 01:15:48;;;;;;;25.20;15.88;;;7.80;99.90;;;;;;4990647;28;20018;-47
2023/10/20 01:18:14;;;;;;;23.88;16.20;;;7.80;99.90;;;;;;4990879;28;20566;-48
2023/10/20 01:20:40;;;;;;;27.27;15.27;;;7.80;99.90;;;;;;4990788;28;20343;-46
2023/10/20 01:23:05;;;;;;;25.00;15.77;;;7.80;99.90;;;;;;4990478;28;20089;-46
2023/10/20 01:25:31;;;;;;;26.80;14.93;;;7.80;99.90;;;;;;4990293;28;20030;-47
2023/10/20 01:27:56;;;;;;;22.98;14.40;;;7.80;99.90;;;;;;4973285;28;20033;-45
2023/10/20 01:30:22;;;;;;;25.63;16.30;;;7.80;99.90;;;;;;4990720;28;20034;-48
2023/10/20 01:32:48;;;;;;;25.25;15.82;;;7.70;99.90;;;;;;4972949;28;20064;-46
2023/10/20 01:35:13;;;;;;;25.90;15.90;;;7.80;99.90;;;;;;4990266;28;20019;-45
2023/10/20 01:37:40;;;;;;;25.10;15.45;;;7.80;99.90;;;;;;4990410;28;20104;-47
2023/10/20 01:40:09;;;;;;;28.02;16.52;;;7.80;99.90;;;;;;4990432;28;20035;-49
2023/10/20 01:42:35;;;;;;;25.20;16.08;;;7.80;99.90;;;;;;4989713;28;20084;-49
2023/10/20 01:45:01;;;;;;;32.00;18.23;;;7.70;99.90;;;;;;4972707;28;20041;-46
2023/10/20 01:47:27;;;;;;;31.17;17.45;;;7.70;99.90;;;;;;4990232;28;20022;-48
2023/10/20 01:49:52;;;;;;;30.33;17.23;;;7.70;99.90;;;;;;4990766;28;20046;-48
2023/10/20 01:52:18;;;;;;;34.47;17.77;;;7.70;99.90;;;;;;4990342;28;20034;-45
2023/10/20 01:54:44;;;;;;;28.45;16.83;;;7.70;99.90;;;;;;4990192;28;20054;-47
2023/10/20 01:57:10;;;;;;;31.50;16.95;;;7.60;99.90;;;;;;4989999;28;20499;-48
2023/10/20 01:59:35;;;;;;;34.75;17.70;;;7.70;99.90;;;;;;4990283;28;20062;-48
2023/10/20 02:02:01;;;;;;;27.65;15.75;;;7.60;99.90;;;;;;4990545;28;20026;-47
2023/10/20 02:04:27;;;;;;;30.52;18.23;;;7.60;99.90;;;;;;4990039;28;20039;-48
2023/10/20 02:06:53;;;;;;;36.08;17.92;;;7.60;99.90;;;;;;4990413;28;20438;-45
2023/10/20 02:09:18;;;;;;;31.67;19.25;;;7.60;99.90;;;;;;4990134;28;20102;-46
2023/10/20 02:11:44;;;;;;;44.22;19.88;;;7.60;99.90;;;;;;4990446;28;20113;-47
2023/10/20 02:14:09;;;;;;;34.90;18.67;;;7.60;99.90;;;;;;4990276;28;20428;-48
2023/10/20 02:16:36;;;;;;;35.38;18.90;;;7.60;99.90;;;;;;4972280;28;20081;-46
2023/10/20 02:19:03;;;;;;;36.78;19.98;;;7.60;99.90;;;;;;4989928;28;20050;-46
2023/10/20 02:21:29;;;;;;;29.30;18.45;;;7.60;99.90;;;;;;4989900;28;20026;-46
2023/10/20 02:23:54;;;;;;;32.95;20.30;;;7.60;99.90;;;;;;4988995;28;20057;-47
2023/10/20 02:26:20;;;;;;;34.38;17.60;;;7.60;99.90;;;;;;4989570;28;20026;-45
2023/10/20 02:28:45;;;;;;;34.50;20.65;;;7.60;99.90;;;;;;4990131;28;20026;-47
2023/10/20 02:31:18;;;;;;;31.35;19.73;;;7.50;99.90;;;;;;4989699;28;20026;-49
2023/10/20 02:33:44;;;;;;;39.05;19.52;;;7.60;99.90;;;;;;4989978;28;20085;-46
2023/10/20 02:36:18;;;;;;;34.78;19.35;;;7.50;99.90;;;;;;4989588;28;20026;-47
2023/10/20 02:38:44;;;;;;;35.47;19.20;;;7.50;99.90;;;;;;4989912;28;20030;-48
2023/10/20 02:41:09;;;;;;;35.50;20.05;;;7.60;99.90;;;;;;4990068;28;20030;-48
2023/10/20 02:43:35;;;;;;;38.38;21.42;;;7.60;99.90;;;;;;4989531;28;20085;-46
2023/10/20 02:46:00;;;;;;;40.05;21.17;;;7.50;99.90;;;;;;4989572;28;20080;-48
2023/10/20 02:48:26;;;;;;;37.35;19.52;;;7.50;99.90;;;;;;4989745;28;20415;-48
2023/10/20 02:50:51;;;;;;;39.78;20.55;;;7.50;99.90;;;;;;4989666;28;20026;-48
2023/10/20 02:53:17;;;;;;;42.70;21.23;;;7.50;99.90;;;;;;4989990;28;20030;-47
2023/10/20 02:55:45;;;;;;;43.30;22.05;;;7.50;99.90;;;;;;4989443;28;20498;-46
2023/10/20 02:58:13;;;;;;;34.00;20.63;;;7.50;99.90;;;;;;4989511;28;20389;-46
2023/10/20 03:00:43;;;;;;;43.03;20.52;;;7.50;99.90;;;;;;4989652;28;20058;-47
2023/10/20 03:03:13;;;;;;;37.25;20.73;;;7.50;99.90;;;;;;4989567;28;20050;-45
2023/10/20 03:05:43;;;;;;;38.60;21.43;;;7.50;99.90;;;;;;4989286;28;20053;-45
2023/10/20 03:08:09;;;;;;;41.88;22.08;;;7.50;99.90;;;;;;4989642;28;20029;-46
2023/10/20 03:10:35;;;;;;;43.95;22.35;;;7.50;99.90;;;;;;4989404;28;20500;-48
2023/10/20 03:13:01;;;;;;;42.38;21.27;;;7.50;99.90;;;;;;4984157;28;20022;-47
2023/10/20 03:15:26;;;;;;;34.55;19.63;;;7.50;99.90;;;;;;4982442;28;20093;-46
2023/10/20 03:17:52;;;;;;;42.70;21.77;;;7.50;99.90;;;;;;4986562;28;20026;-46
2023/10/20 03:20:24;;;;;;;43.30;23.75;;;7.50;99.90;;;;;;4985210;28;20018;-48
2023/10/20 03:22:50;;;;;;;54.97;25.67;;;7.50;99.90;;;;;;4984496;28;20160;-44
2023/10/20 03:25:17;;;;;;;44.83;23.25;;;7.50;99.90;;;;;;4989210;28;20105;-48
2023/10/20 03:27:43;;;;;;;42.50;22.70;;;7.50;99.90;;;;;;4989427;28;20157;-48
2023/10/20 03:30:09;;;;;;;48.67;24.20;;;7.50;99.90;;;;;;4989186;28;20109;-47
2023/10/20 03:32:35;;;;;;;45.03;22.88;;;7.50;99.90;;;;;;4989063;28;20056;-47
2023/10/20 03:35:01;;;;;;;48.60;24.77;;;7.50;99.90;;;;;;4990996;28;20018;-46
2023/10/20 03:37:27;;;;;;;52.92;26.92;;;7.50;99.90;;;;;;4992524;28;20030;-47
2023/10/20 03:39:53;;;;;;;54.33;28.20;;;7.50;99.90;;;;;;4984340;28;20032;-48
2023/10/20 03:42:18;;;;;;;49.47;26.75;;;7.50;99.90;;;;;;4986410;28;20026;-47
2023/10/20 03:44:46;;;;;;;48.50;26.63;;;7.40;99.90;;;;;;4987185;28;20449;-46
2023/10/20 03:47:13;;;;;;;47.42;27.27;;;7.40;99.90;;;;;;4985483;28;20357;-46
2023/10/20 03:49:39;;;;;;;61.30;29.70;;;7.40;99.90;;;;;;4985378;28;20022;-46
2023/10/20 03:52:11;;;;;;;46.65;26.15;;;7.40;99.90;;;;;;4986742;28;20380;-45
2023/10/20 03:54:38;;;;;;;54.85;28.33;;;7.40;99.90;;;;;;4991963;28;20546;-46
2023/10/20 03:57:04;;;;;;;52.67;27.52;;;7.50;99.90;;;;;;4989058;28;20042;-49
2023/10/20 03:59:30;;;;;;;49.92;27.40;;;7.50;99.90;;;;;;4992686;28;20031;-46
2023/10/20 04:01:56;;;;;;;47.15;27.52;;;7.40;99.90;;;;;;4987491;28;20033;-47
2023/10/20 04:04:22;;;;;;;54.03;27.55;;;7.50;99.90;;;;;;4987682;28;20031;-46
2023/10/20 04:06:49;;;;;;;54.65;28.65;;;7.40;99.90;;;;;;4991801;28;20023;-47
2023/10/20 04:09:17;;;;;;;53.28;29.73;;;7.40;99.90;;;;;;4992160;28;20491;-44
2023/10/20 04:11:43;;;;;;;49.55;27.95;;;7.50;99.90;;;;;;4974601;28;20120;-49
2023/10/20 04:14:09;;;;;;;50.50;27.10;;;7.40;99.90;;;;;;4991727;28;20053;-49
2023/10/20 04:16:42;;;;;;;53.15;29.00;;;7.50;99.90;;;;;;4992106;28;20054;-45
2023/10/20 04:19:14;;;;;;;54.90;29.17;;;7.40;99.90;;;;;;4991816;28;20483;-45
2023/10/20 04:21:41;;;;;;;56.13;29.67;;;7.40;99.90;;;;;;4991728;28;20044;-46
2023/10/20 04:24:07;;;;;;;51.60;28.92;;;7.40;99.90;;;;;;4973855;28;20543;-48
2023/10/20 04:26:35;;;;;;;53.90;28.52;;;7.40;99.90;;;;;;4991819;28;20031;-46
2023/10/20 04:41:49;;;;;;;48.38;26.65;;;7.40;99.90;;;;;;4991774;28;20447;-46
2023/10/20 04:43:04;;;;;;;50.22;26.98;;;7.30;99.90;;;;;;4991683;28;20029;-47
2023/10/20 04:46:55;;;;;;;42.17;26.75;;;7.30;99.90;;;;;;4973175;28;20476;-46
2023/10/20 04:53:55;;;;;;;51.38;27.40;;;7.40;99.90;;;;;;4991662;28;20037;-48
2023/10/20 04:56:36;;;;;;;47.90;25.55;;;7.40;99.90;;;;;;4991214;28;20243;-46
2023/10/20 04:59:10;;;;;;;46.10;26.02;;;7.40;99.90;;;;;;4990999;28;20487;-47
2023/10/20 05:07:05;;;;;;;49.17;27.13;;;7.30;99.90;;;;;;4991214;28;20046;-46
2023/10/20 05:09:33;;;;;;;48.95;26.98;;;7.30;99.90;;;;;;4985294;28;20037;-46
2023/10/20 05:11:59;;;;;;;48.90;28.02;;;7.30;99.90;;;;;;4984532;28;20015;-46
2023/10/20 05:14:26;;;;;;;51.53;28.55;;;7.30;99.90;;;;;;4983840;28;20037;-47
2023/10/20 05:16:55;;;;;;;52.83;28.20;;;7.30;99.90;;;;;;4984812;28;20100;-46
2023/10/20 05:19:20;;;;;;;46.78;27.40;;;7.30;99.90;;;;;;4970732;28;20023;-45
2023/10/20 05:21:46;;;;;;;48.55;26.50;;;7.30;99.90;;;;;;4984689;28;20037;-49
2023/10/20 05:24:11;;;;;;;50.80;28.30;;;7.30;99.90;;;;;;4987183;28;20128;-49
2023/10/20 05:26:37;;;;;;;45.63;25.55;;;7.30;99.90;;;;;;4988663;28;20041;-48
2023/10/20 05:29:02;;;;;;;51.75;27.55;;;7.30;99.90;;;;;;4986659;28;20098;-48
2023/10/20 05:31:29;;;;;;;44.40;26.00;;;7.30;99.90;;;;;;4972813;28;20017;-46
2023/10/20 05:33:55;;;;;;;47.10;26.73;;;7.30;99.90;;;;;;4987030;28;20022;-49
2023/10/20 05:36:20;;;;;;;48.13;26.55;;;7.30;99.90;;;;;;4973046;28;20306;-46
2023/10/20 05:38:47;;;;;;;41.63;25.60;;;7.30;99.90;;;;;;4987749;28;20026;-46
2023/10/20 05:41:12;;;;;;;42.67;24.67;;;7.30;99.90;;;;;;4988789;28;20295;-47
2023/10/20 05:43:38;;;;;;;42.83;24.45;;;7.30;99.90;;;;;;4988877;28;20350;-47
2023/10/20 05:46:04;;;;;;;45.33;24.02;;;7.40;99.90;;;;;;4985870;28;20011;-48
2023/10/20 05:48:30;;;;;;;41.88;24.83;;;7.30;99.90;;;;;;4990699;28;20105;-49
2023/10/20 05:50:57;;;;;;;45.00;23.42;;;7.40;99.90;;;;;;4986407;28;20014;-46
2023/10/20 05:53:26;;;;;;;41.67;23.13;;;7.30;99.90;;;;;;4990496;28;20441;-48
2023/10/20 05:55:52;;;;;;;38.15;23.15;;;7.30;99.90;;;;;;4986822;28;20018;-47
2023/10/20 05:58:17;;;;;;;46.53;23.63;;;7.30;99.90;;;;;;4970321;28;20027;-48
2023/10/20 06:00:43;;;;;;;46.40;25.88;;;7.30;99.90;;;;;;4987801;28;20072;-46
2023/10/20 06:03:09;;;;;;;75.90;41.63;;;7.30;99.90;;;;;;4986693;28;20440;-45
2023/10/20 06:05:34;;;;;;;36.60;20.88;;;7.40;99.90;;;;;;4989224;28;20418;-46
2023/10/20 06:08:00;;;;;;;34.20;19.50;;;7.40;99.90;;;;;;4985509;28;20106;-46
2023/10/20 06:10:26;;;;;;;32.90;18.58;;;7.40;99.90;;;;;;4990301;28;20025;-47
2023/10/20 06:12:53;;;;;;;31.08;18.25;;;7.40;99.90;;;;;;4986376;28;20080;-46
2023/10/20 06:15:20;;;;;;;28.70;17.02;;;7.40;99.90;;;;;;4988093;28;20058;-47
2023/10/20 06:17:46;;;;;;;29.67;18.23;;;7.40;99.90;;;;;;4989135;28;20101;-45
2023/10/20 06:20:13;;;;;;;26.38;15.48;;;7.30;99.90;;;;;;4987858;28;20022;-48
2023/10/20 06:22:42;;;;;;;26.02;16.75;;;7.40;99.90;;;;;;4990608;28;20033;-49
2023/10/20 06:25:14;;;;;;;29.65;16.05;;;7.40;99.90;;;;;;4985975;28;20240;-49
2023/10/20 06:27:43;;;;;;;25.63;15.45;;;7.30;99.90;;;;;;4987893;28;20610;-46
2023/10/20 06:30:14;;;;;;;23.50;14.18;;;7.30;99.90;;;;;;4996248;28;20031;-46
2023/10/20 06:32:42;;;;;;;25.65;14.30;;;7.30;99.90;;;;;;4988539;28;20030;-47
2023/10/20 06:35:09;;;;;;;21.75;13.13;;;7.40;99.90;;;;;;4968440;28;20705;-48
2023/10/20 06:37:38;;;;;;;20.60;12.68;;;7.40;99.90;;;;;;4989776;28;20407;-47
2023/10/20 06:40:05;;;;;;;19.50;11.65;;;7.30;99.90;;;;;;4985054;28;20022;-50
2023/10/20 06:42:30;;;;;;;26.55;12.57;;;7.40;99.90;;;;;;4990409;28;20034;-47
2023/10/20 06:44:56;;;;;;;18.70;12.23;;;7.40;99.90;;;;;;4985427;28;20022;-50
2023/10/20 06:47:22;;;;;;;25.00;12.98;;;7.40;99.90;;;;;;4988903;28;20065;-49
2023/10/20 06:49:48;;;;;;;18.48;11.50;;;7.40;99.90;;;;;;4985614;28;20007;-49
2023/10/20 06:52:17;;;;;;;19.30;11.73;;;7.30;99.90;;;;;;4985729;28;20027;-50
2023/10/20 06:54:48;;;;;;;17.73;9.70;;;7.40;99.90;;;;;;4986804;28;20392;-48
2023/10/20 06:57:14;;;;;;;17.27;10.55;;;7.30;99.90;;;;;;4985193;28;20085;-50
2023/10/20 06:59:40;;;;;;;18.45;10.93;;;7.30;99.90;;;;;;4988317;28;20060;-46
2023/10/20 07:02:05;;;;;;;18.08;11.15;;;7.30;99.90;;;;;;4984716;28;20027;-48
2023/10/20 07:04:31;;;;;;;19.20;10.15;;;7.40;99.90;;;;;;4986470;28;20502;-48
2023/10/20 07:06:57;;;;;;;19.58;10.30;;;7.40;99.90;;;;;;4982566;28;20022;-47
2023/10/20 07:09:23;;;;;;;15.90;10.00;;;7.40;99.90;;;;;;4989701;28;20053;-49
2023/10/20 07:11:48;;;;;;;18.13;9.70;;;7.40;99.90;;;;;;4989330;28;20019;-47
2023/10/20 07:14:14;;;;;;;15.38;9.43;;;7.40;99.90;;;;;;4987059;28;20396;-47
2023/10/20 07:16:40;;;;;;;16.65;9.02;;;7.40;99.90;;;;;;4991047;28;20030;-47
2023/10/20 07:19:06;;;;;;;13.65;7.85;;;7.40;99.90;;;;;;4988169;28;20057;-50
2023/10/20 07:21:32;;;;;;;13.65;7.55;;;7.30;99.90;;;;;;4992354;28;20040;-47
2023/10/20 07:23:57;;;;;;;11.45;7.50;;;7.30;99.90;;;;;;4988396;28;20411;-47
2023/10/20 07:26:24;;;;;;;12.02;7.45;;;7.30;99.90;;;;;;4990442;28;20030;-47
2023/10/20 07:28:49;;;;;;;13.90;7.10;;;7.30;99.90;;;;;;4971083;28;20021;-47
2023/10/20 07:31:17;;;;;;;14.50;8.18;;;7.30;99.90;;;;;;4989450;28;20038;-48
2023/10/20 07:33:43;;;;;;;14.00;8.38;;;7.30;99.90;;;;;;4989114;28;20030;-50
2023/10/20 07:36:09;;;;;;;16.88;7.70;;;7.30;99.90;;;;;;4988095;28;20033;-48
2023/10/20 07:38:34;;;;;;;15.48;8.30;;;7.30;99.90;;;;;;4992123;28;20033;-49
2023/10/20 07:41:06;;;;;;;13.68;8.10;;;7.30;99.90;;;;;;4987885;28;20041;-49
2023/10/20 07:43:33;;;;;;;13.30;8.15;;;7.30;99.90;;;;;;4991665;28;20025;-48
2023/10/20 07:45:58;;;;;;;14.60;8.20;;;7.30;99.90;;;;;;4990649;28;20109;-48
2023/10/20 07:48:25;;;;;;;16.15;7.60;;;7.30;99.90;;;;;;4993147;28;20105;-50
2023/10/20 07:50:52;;;;;;;23.55;13.85;;;7.20;99.90;;;;;;4992632;28;20038;-49
2023/10/20 07:53:18;;;;;;;42.83;22.33;;;7.30;99.90;;;;;;4992649;28;20033;-49
2023/10/20 07:55:44;;;;;;;17.08;8.98;;;7.30;99.90;;;;;;4992302;28;20026;-49
2023/10/20 07:58:09;;;;;;;13.68;7.78;;;7.30;99.90;;;;;;4992421;28;20040;-48
2023/10/20 08:00:36;;;;;;;12.70;8.75;;;7.30;99.90;;;;;;4992228;28;20030;-49
2023/10/20 08:03:02;;;;;;;11.90;8.48;;;7.30;99.90;;;;;;4974842;28;20794;-49
2023/10/20 08:05:28;;;;;;;12.10;7.45;;;7.20;99.90;;;;;;4991982;28;20139;-50
2023/10/20 08:07:55;;;;;;;12.30;7.00;;;7.20;99.90;;;;;;4991079;28;20105;-50
2023/10/20 08:10:23;;;;;;;13.52;7.88;;;7.20;99.90;;;;;;4992242;28;20023;-48
2023/10/20 08:12:49;;;;;;;13.48;8.07;;;7.20;99.90;;;;;;4992290;28;20045;-50
2023/10/20 08:15:15;;;;;;;11.40;8.05;;;7.20;99.90;;;;;;4992147;28;20042;-49
2023/10/20 08:17:40;;;;;;;12.48;7.20;;;7.20;99.90;;;;;;4992162;28;20034;-50
2023/10/20 08:20:09;;;;;;;13.20;7.47;;;7.20;99.90;;;;;;4991921;28;20033;-50
2023/10/20 08:22:35;;;;;;;13.27;6.95;;;7.20;99.90;;;;;;4991094;28;20034;-50
2023/10/20 08:25:00;;;;;;;11.98;6.47;;;7.20;99.90;;;;;;4992117;28;20377;-50
2023/10/20 08:27:26;;;;;;;9.95;6.80;;;7.20;99.90;;;;;;4974108;28;20109;-49
2023/10/20 08:29:55;;;;;;;9.70;5.90;;;7.20;99.90;;;;;;4985382;28;20034;-51
2023/10/20 08:32:20;;;;;;;11.57;6.07;;;7.20;99.90;;;;;;4985696;28;20022;-52
2023/10/20 08:34:46;;;;;;;11.38;6.50;;;7.20;99.90;;;;;;4986001;28;20263;-51
2023/10/20 08:37:11;;;;;;;10.57;6.63;;;7.20;99.90;;;;;;4983229;28;20394;-51
2023/10/20 08:39:37;;;;;;;9.52;6.07;;;7.10;99.90;;;;;;4986419;28;20019;-50
2023/10/20 08:42:12;;;;;;;12.70;6.68;;;7.20;99.90;;;;;;4984090;28;20077;-51
2023/10/20 08:44:37;;;;;;;11.07;7.45;;;7.20;99.90;;;;;;4985670;28;20061;-49
2023/10/20 08:47:03;;;;;;;11.57;7.05;;;7.20;99.90;;;;;;4991692;28;20461;-50
2023/10/20 08:49:29;;;;;;;15.38;7.13;;;7.10;99.90;;;;;;4991611;28;20037;-51
2023/10/20 08:51:57;;;;;;;8.48;6.03;;;7.10;99.90;;;;;;4974112;28;20443;-47
2023/10/20 08:54:22;;;;;;;12.05;6.75;;;7.10;99.90;;;;;;4991190;28;20479;-48
2023/10/20 08:56:48;;;;;;;10.40;6.18;;;7.10;99.90;;;;;;4991058;28;20061;-51
2023/10/20 08:59:14;;;;;;;9.85;6.40;;;7.10;99.90;;;;;;4973827;28;20038;-51
2023/10/20 09:01:42;;;;;;;11.20;6.60;;;7.10;99.90;;;;;;4991422;28;20088;-50
2023/10/20 09:04:07;;;;;;;11.20;6.72;;;7.10;99.90;;;;;;4991246;28;20331;-51
2023/10/20 09:06:33;;;;;;;13.73;7.05;;;7.00;99.90;;;;;;4990923;28;20038;-49
2023/10/20 09:08:59;;;;;;;10.23;6.25;;;7.10;99.90;;;;;;4990969;28;20525;-49
2023/10/20 09:11:30;;;;;;;12.57;7.15;;;7.00;99.90;;;;;;4973634;28;20468;-50
2023/10/20 09:13:57;;;;;;;16.98;6.20;;;7.00;99.90;;;;;;4990964;28;20022;-50
2023/10/20 09:16:23;;;;;;;10.30;6.45;;;7.00;99.90;;;;;;4990299;28;20026;-51
2023/10/20 09:18:50;;;;;;;13.30;7.10;;;6.90;99.90;;;;;;4984939;28;20101;-51
2023/10/20 09:21:18;;;;;;;13.27;7.30;;;6.90;99.90;;;;;;4991416;28;20022;-50
2023/10/20 09:24:02;;;;;;;11.35;6.95;;;6.90;99.90;;;;;;4989644;28;20098;-48
2023/10/20 09:26:30;;;;;;;9.13;6.40;;;6.90;99.90;;;;;;4990643;28;20068;-50
2023/10/20 09:28:56;;;;;;;12.52;8.07;;;6.90;99.90;;;;;;4987334;28;20019;-50
2023/10/20 09:31:23;;;;;;;16.58;7.32;;;6.90;99.90;;;;;;4990468;28;20025;-50
2023/10/20 09:33:49;;;;;;;14.00;7.80;;;6.90;99.90;;;;;;4990186;28;20047;-51
2023/10/20 09:36:15;;;;;;;15.88;8.25;;;6.90;99.90;;;;;;4972765;28;20032;-50
2023/10/20 09:38:44;;;;;;;16.90;7.78;;;6.90;99.90;;;;;;4972950;28;20060;-50
2023/10/20 09:41:17;;;;;;;13.82;6.75;;;6.90;99.90;;;;;;4990373;28;20038;-51
2023/10/20 09:43:48;;;;;;;14.15;7.78;;;6.90;99.90;;;;;;4990223;28;20028;-51
2023/10/20 09:46:19;;;;;;;;;;;6.80;99.90;;;;;;4990594;28;20030;-51
2023/10/20 09:48:47;;;;;;;11.35;6.97;;;6.90;99.90;;;;;;4989868;28;19988;-51
2023/10/20 09:51:15;;;;;;;13.98;7.10;;;6.80;99.90;;;;;;4955616;28;20018;-51
2023/10/20 09:53:42;;;;;;;14.55;7.80;;;6.90;99.90;;;;;;4988813;28;20550;-50
2023/10/20 09:56:08;;;;;;;12.80;7.05;;;6.90;99.90;;;;;;4988512;28;20088;-51
2023/10/20 09:58:36;;;;;;;11.93;6.53;;;6.90;99.90;;;;;;4988735;28;20358;-50
2023/10/20 10:01:03;;;;;;;15.70;7.25;;;6.80;99.90;;;;;;4971133;28;20033;-51
2023/10/20 10:03:42;;;;;;;13.25;7.43;;;6.80;99.90;;;;;;4988649;28;20037;-51
2023/10/20 10:06:15;;;;;;;13.95;7.25;;;6.90;99.90;;;;;;4989954;28;20499;-50
2023/10/20 10:08:45;;;;;;;15.02;7.28;;;6.90;99.90;;;;;;4989616;28;20050;-50
2023/10/20 10:11:27;;;;;;;15.35;7.80;;;6.80;99.90;;;;;;4990014;28;20173;-51
2023/10/20 10:14:01;;;;;;;14.60;8.35;;;6.80;99.90;;;;;;4990097;28;20030;-50
2023/10/20 10:16:27;;;;;;;15.60;7.88;;;6.80;99.90;;;;;;4972373;28;20037;-52
2023/10/20 10:18:56;;;;;;;14.65;8.05;;;6.80;99.90;;;;;;4990011;28;20105;-51
2023/10/20 10:21:28;;;;;;;14.43;8.40;;;6.80;99.90;;;;;;4972106;28;20439;-50
2023/10/20 10:24:22;;;;;;;14.85;9.02;;;6.80;99.90;;;;;;4972372;28;20165;-51
2023/10/20 10:26:51;;;;;;;16.77;9.50;;;6.80;99.90;;;;;;4972235;28;20022;-52
2023/10/20 10:29:37;;;;;;;18.15;9.48;;;6.80;99.90;;;;;;4989783;28;20086;-51
2023/10/20 10:32:09;;;;;;;13.30;7.40;;;6.80;99.90;;;;;;4989268;28;20038;-49
2023/10/20 10:34:42;;;;;;;14.00;7.63;;;6.80;99.90;;;;;;4989617;28;20038;-51
2023/10/20 10:37:08;;;;;;;13.63;7.20;;;6.80;99.90;;;;;;4971698;28;20109;-50
2023/10/20 10:39:33;;;;;;;10.05;6.68;;;6.70;99.90;;;;;;4989566;28;20113;-51
2023/10/20 10:42:03;;;;;;;12.65;6.95;;;6.70;99.90;;;;;;4972066;28;20026;-51
2023/10/20 10:44:34;;;;;;;13.53;6.97;;;6.80;99.90;;;;;;4990664;28;20069;-49
2023/10/20 10:47:03;;;;;;;11.80;6.35;;;6.80;99.90;;;;;;4993483;28;20018;-51
2023/10/20 10:49:33;;;;;;;11.18;5.88;;;6.70;99.90;;;;;;4994140;28;20022;-50
2023/10/20 10:52:04;;;;;;;8.00;5.65;;;6.70;99.90;;;;;;4993785;28;20046;-49
2023/10/20 10:54:33;;;;;;;11.15;6.57;;;6.70;99.90;;;;;;4993539;28;20109;-51
2023/10/20 10:57:03;;;;;;;9.00;6.05;;;6.70;99.90;;;;;;4993514;28;20037;-51
2023/10/20 10:59:30;;;;;;;9.80;6.10;;;6.70;99.90;;;;;;4994650;28;20559;-51
2023/10/20 11:01:56;;;;;;;9.13;5.88;;;6.70;99.90;;;;;;5010120;28;20029;-50
2023/10/20 11:04:23;;;;;;;11.13;6.78;;;6.70;99.90;;;;;;5012440;28;20061;-51
2023/10/20 11:06:49;;;;;;;10.23;6.40;;;6.70;99.90;;;;;;4981852;28;20022;-51
2023/10/20 11:09:19;;;;;;;10.35;6.45;;;6.70;99.90;;;;;;4988141;28;20033;-51
2023/10/20 11:11:47;;;;;;;11.52;5.88;;;6.60;99.90;;;;;;5000363;28;20033;-49
2023/10/20 11:14:17;;;;;;;8.30;5.88;;;6.60;99.90;;;;;;5010656;28;20030;-51
2023/10/20 11:16:42;;;;;;;13.30;6.50;;;6.70;99.90;;;;;;4995163;28;20064;-50
2023/10/20 11:19:12;;;;;;;9.20;6.60;;;6.60;99.90;;;;;;4986365;28;20073;-50
2023/10/20 11:21:45;;;;;;;13.65;6.05;;;6.60;99.90;;;;;;5011838;28;20487;-51
2023/10/20 11:24:11;;;;;;;9.45;5.75;;;6.60;99.90;;;;;;5012372;28;20502;-52
2023/10/20 11:26:37;;;;;;;8.75;6.00;;;6.60;99.90;;;;;;5011766;28;20519;-51
2023/10/20 11:29:05;;;;;;;7.68;5.10;;;6.70;99.90;;;;;;5007842;28;20105;-52
2023/10/20 11:31:31;;;;;;;9.80;5.35;;;6.60;99.90;;;;;;5012310;28;20018;-51
2023/10/20 11:33:57;;;;;;;7.03;5.20;;;6.60;99.90;;;;;;4989372;28;20422;-51
2023/10/20 11:36:22;;;;;;;9.13;5.43;;;6.70;99.90;;;;;;5011399;28;20026;-51
2023/10/20 11:38:48;;;;;;;10.02;6.47;;;6.70;99.90;;;;;;5011662;28;20065;-51
2023/10/20 11:41:13;;;;;;;9.45;6.00;;;6.70;99.90;;;;;;5011607;28;20434;-51
2023/10/20 11:43:40;;;;;;;10.13;5.85;;;6.70;99.90;;;;;;5011119;28;20501;-51
2023/10/20 11:46:06;;;;;;;7.55;5.25;;;6.70;99.90;;;;;;5011537;28;20025;-52
2023/10/20 11:48:32;;;;;;;7.35;4.85;;;6.70;99.90;;;;;;5011402;28;20053;-51
2023/10/20 11:50:57;;;;;;;9.00;5.50;;;6.80;99.90;;;;;;4998642;28;20054;-49
2023/10/20 11:53:23;;;;;;;10.45;5.28;;;6.70;99.90;;;;;;4993271;28;20022;-51
2023/10/20 11:55:49;;;;;;;6.88;4.85;;;6.80;99.90;;;;;;4974735;28;20033;-51
2023/10/20 11:58:17;;;;;;;7.22;4.47;;;6.80;99.90;;;;;;4974923;28;20069;-51
2023/10/20 12:00:42;;;;;;;6.25;4.25;;;6.70;99.90;;;;;;4992458;28;20061;-49
2023/10/20 12:03:08;;;;;;;10.80;6.90;;;6.70;99.90;;;;;;4992146;28;20105;-51
2023/10/20 12:05:36;;;;;;;25.65;13.80;;;6.70;99.90;;;;;;4991980;28;20061;-52
2023/10/20 12:08:04;;;;;;;7.03;4.65;;;6.70;99.90;;;;;;4992281;28;20029;-48
2023/10/20 12:10:30;;;;;;;7.63;4.65;;;6.70;99.90;;;;;;4974661;28;20073;-51
2023/10/20 12:12:56;;;;;;;5.43;4.07;;;6.70;99.90;;;;;;4992285;28;20033;-50
2023/10/20 12:15:22;;;;;;;11.38;6.85;;;6.70;99.90;;;;;;4992094;28;20114;-51
2023/10/20 12:17:47;;;;;;;46.33;24.30;;;6.70;99.90;;;;;;4974760;28;20484;-51
2023/10/20 12:20:13;;;;;;;7.82;5.22;;;6.60;99.90;;;;;;4992044;28;20042;-52
2023/10/20 12:22:38;;;;;;;5.82;3.72;;;6.50;99.90;;;;;;4991439;28;20026;-51
2023/10/20 12:25:05;;;;;;;5.10;3.90;;;6.50;99.90;;;;;;4991799;28;20026;-51
2023/10/20 12:27:31;;;;;;;5.93;3.90;;;6.50;99.90;;;;;;4974204;28;20030;-51
2023/10/20 12:29:56;;;;;;;6.40;3.47;;;6.50;99.90;;;;;;4991877;28;20014;-51
2023/10/20 12:32:22;;;;;;;5.32;3.53;;;6.50;99.90;;;;;;4991710;28;20023;-51
2023/10/20 12:34:48;;;;;;;4.32;3.10;;;6.50;99.90;;;;;;4974016;28;20049;-51
2023/10/20 12:37:14;;;;;;;5.53;3.60;;;6.40;99.90;;;;;;4974049;28;20534;-50
2023/10/20 12:39:40;;;;;;;3.75;3.17;;;6.40;99.90;;;;;;4991650;28;20122;-51
2023/10/20 12:42:05;;;;;;;5.60;3.72;;;6.40;99.90;;;;;;4991732;28;20057;-50
2023/10/20 12:44:33;;;;;;;6.00;4.18;;;6.40;99.90;;;;;;4991422;28;20058;-52
2023/10/20 12:46:59;;;;;;;5.35;3.63;;;6.40;99.90;;;;;;4973990;28;20479;-51
2023/10/20 12:49:25;;;;;;;5.82;3.42;;;6.40;99.90;;;;;;4991856;28;20078;-51
2023/10/20 12:51:50;;;;;;;5.65;3.72;;;6.30;99.90;;;;;;4992100;28;20310;-52
2023/10/20 12:54:16;;;;;;;5.20;3.90;;;6.40;99.90;;;;;;4991216;28;20026;-50
2023/10/20 12:56:41;;;;;;;5.97;3.67;;;6.40;99.90;;;;;;4991046;28;20054;-50
2023/10/20 12:59:07;;;;;;;5.38;3.63;;;6.40;99.90;;;;;;4991263;28;20602;-51
2023/10/20 13:01:32;;;;;;;6.32;4.40;;;6.40;99.90;;;;;;4991248;28;20056;-50
2023/10/20 13:03:59;;;;;;;6.07;3.88;;;6.40;99.90;;;;;;4990988;28;20112;-52